Time;durP1;ratioP1;P1;durP2;ratioP2;P2;SDS_P1;SDS_P2;PMS_P1;PMS_P2;Temp;Humidity;BMP_temperature;BMP_pressure;BME280_temperature;BME280_humidity;BME280_pressure;Samples;Min_cycle;Max_cycle;Signal;HPM_P1;HPM_P2
2024/04/10 00:04:35;;;;;;;13.88;3.70;;;;;;;17.51;100.00;101126.91;11302454;26;20035;-84
2024/04/10 00:09:59;;;;;;;9.30;3.38;;;;;;;17.52;100.00;101113.53;11251436;26;19999;-83
2024/04/10 00:15:26;;;;;;;9.82;3.42;;;;;;;17.63;100.00;101097.47;11279119;26;20020;-84
2024/04/10 00:20:51;;;;;;;8.55;3.20;;;;;;;17.69;100.00;101102.78;11350532;26;20013;-84
2024/04/10 00:26:18;;;;;;;8.20;3.42;;;;;;;17.67;100.00;101101.88;11351424;26;20002;-85
2024/04/10 00:31:50;;;;;;;10.55;3.80;;;;;;;17.61;100.00;101090.38;11351148;26;20580;-83
2024/04/10 00:37:15;;;;;;;9.40;3.25;;;;;;;17.62;100.00;101082.34;11351235;26;20028;-83
2024/04/10 00:42:41;;;;;;;10.13;3.22;;;;;;;17.62;100.00;101093.03;11325194;26;20430;-84
2024/04/10 00:48:10;;;;;;;7.47;3.45;;;;;;;17.61;100.00;101083.25;11319033;26;20034;-83
2024/04/10 00:53:34;;;;;;;8.40;3.83;;;;;;;17.50;100.00;101069.97;11248945;26;19995;-84
2024/04/10 00:59:01;;;;;;;10.98;4.78;;;;;;;17.46;100.00;101064.63;11274744;26;20080;-84
2024/04/10 01:04:30;;;;;;;9.53;3.57;;;;;;;17.38;100.00;101053.16;11249542;26;20551;-84
2024/04/10 01:09:54;;;;;;;5.53;3.60;;;;;;;17.25;100.00;101064.81;11223818;26;20749;-85
2024/04/10 01:15:18;;;;;;;9.00;3.10;;;;;;;17.18;100.00;101063.09;11301229;26;20028;-84
2024/04/10 01:20:45;;;;;;;6.57;2.80;;;;;;;17.20;100.00;101061.31;11348853;26;20015;-85
2024/04/10 01:26:13;;;;;;;4.93;2.78;;;;;;;17.21;100.00;101055.94;11323549;26;20012;-84
2024/04/10 01:31:37;;;;;;;7.90;2.90;;;;;;;17.20;100.00;101047.97;11323843;26;20449;-84
2024/04/10 01:37:01;;;;;;;6.22;3.10;;;;;;;17.22;100.00;101043.47;11349561;26;20030;-84
2024/04/10 01:42:29;;;;;;;7.10;3.08;;;;;;;17.08;100.00;101048.91;11323768;26;20038;-84
2024/04/10 01:47:53;;;;;;;7.25;3.22;;;;;;;17.04;100.00;101045.38;11319885;26;20841;-83
2024/04/10 01:53:17;;;;;;;8.02;3.40;;;;;;;16.99;100.00;101048.97;11322150;26;20016;-84
2024/04/10 01:58:46;;;;;;;6.82;2.80;;;;;;;16.91;100.00;101048.13;11322868;26;19998;-84
2024/04/10 02:04:10;;;;;;;5.70;3.10;;;;;;;16.92;100.00;101044.56;11297629;26;20029;-84
2024/04/10 02:09:34;;;;;;;5.53;2.92;;;;;;;16.91;100.00;101040.13;11297553;26;19994;-84
2024/04/10 02:15:01;;;;;;;5.05;2.53;;;;;;;16.88;100.00;101048.13;11322273;26;20017;-84
2024/04/10 02:20:26;;;;;;;7.05;2.63;;;;;;;16.85;100.00;101033.06;11352577;26;20002;-83
2024/04/10 02:25:50;;;;;;;5.03;2.70;;;;;;;16.88;100.00;101048.13;11354503;26;20370;-84
2024/04/10 02:31:19;;;;;;;6.70;3.20;;;;;;;16.98;98.66;101049.88;11330017;26;20010;-84
2024/04/10 02:36:44;;;;;;;8.00;2.90;;;;;;;17.03;98.14;101040.94;11354924;26;20005;-84
2024/04/10 02:42:08;;;;;;;7.93;2.55;;;;;;;17.01;97.18;101048.06;11354343;26;20003;-84
2024/04/10 02:47:37;;;;;;;5.60;2.80;;;;;;;16.96;97.51;101047.22;11329964;26;20027;-83
2024/04/10 02:53:01;;;;;;;6.45;3.28;;;;;;;16.85;98.29;101037.50;11327994;26;20002;-84
2024/04/10 02:58:26;;;;;;;7.57;2.78;;;;;;;16.76;99.19;101041.09;11303062;26;20034;-84
2024/04/10 03:03:52;;;;;;;4.85;2.80;;;;;;;16.82;98.63;101033.06;11303327;26;20456;-84
2024/04/10 03:09:17;;;;;;;4.22;2.60;;;;;;;16.49;99.73;101030.53;11303844;26;20017;-84
2024/04/10 03:14:42;;;;;;;3.85;2.63;;;;;;;16.19;100.00;101034.19;11303372;26;19998;-84
2024/04/10 03:20:10;;;;;;;6.68;2.90;;;;;;;16.10;100.00;101044.88;11327454;26;20013;-83
2024/04/10 03:25:34;;;;;;;5.38;2.83;;;;;;;16.08;100.00;101042.19;11327807;26;20002;-83
2024/04/10 03:30:58;;;;;;;7.60;4.07;;;;;;;16.12;100.00;101033.34;11250401;26;20440;-84
2024/04/10 03:36:25;;;;;;;5.13;2.70;;;;;;;15.98;100.00;101036.91;11303919;26;20030;-83
2024/04/10 03:41:49;;;;;;;7.32;3.70;;;;;;;15.74;100.00;101052.03;11303037;26;20013;-82
2024/04/10 03:47:14;;;;;;;6.32;3.45;;;;;;;15.69;100.00;101045.81;11270974;26;19998;-83
2024/04/10 03:52:42;;;;;;;4.93;3.15;;;;;;;15.76;100.00;101052.03;11262775;26;20337;-83
2024/04/10 03:58:07;;;;;;;5.03;3.43;;;;;;;15.69;100.00;101051.13;11276637;26;20007;-83
2024/04/10 04:03:33;;;;;;;5.40;3.45;;;;;;;15.74;100.00;101060.03;11228013;26;20739;-84
2024/04/10 04:09:03;;;;;;;;;;;;;;;15.89;100.00;101067.97;11228038;26;19999;-83
2024/04/10 04:14:27;;;;;;;7.32;3.00;;;;;;;15.85;100.00;101068.88;11290185;26;19936;-85
2024/04/10 04:19:52;;;;;;;3.75;2.53;;;;;;;16.00;100.00;101070.66;11352256;26;20046;-84
2024/04/10 04:25:19;;;;;;;5.93;2.80;;;;;;;16.26;100.00;101071.47;11325540;26;20017;-83
2024/04/10 04:30:48;;;;;;;5.10;2.55;;;;;;;16.47;100.00;101067.88;11301039;26;19994;-84
2024/04/10 04:36:14;;;;;;;6.43;2.67;;;;;;;16.76;100.00;101061.53;11301224;26;20458;-85
2024/04/10 04:41:43;;;;;;;4.32;2.78;;;;;;;16.77;100.00;101058.88;11298881;26;20074;-84
2024/04/10 04:47:07;;;;;;;6.83;3.57;;;;;;;16.95;100.00;101071.22;11301169;26;20008;-85
2024/04/10 04:52:32;;;;;;;5.28;2.95;;;;;;;17.51;100.00;101079.75;11262473;26;20007;-84
2024/04/10 04:58:02;;;;;;;9.52;3.22;;;;;;;18.07;100.00;101075.69;11224966;26;20335;-85
2024/04/10 05:10:58;;;;;;;9.55;3.33;;;;;;;19.51;98.87;101083.69;11390539;25;20361;-85
2024/04/10 05:16:22;;;;;;;5.93;2.17;;;;;;;19.87;80.98;101077.75;11288715;26;20031;-86
2024/04/10 05:21:48;;;;;;;5.65;2.33;;;;;;;20.34;75.27;101088.53;11287669;26;20030;-87
2024/04/10 05:27:26;;;;;;;4.05;2.50;;;;;;;21.05;73.54;101085.25;11313053;26;20023;-86
2024/04/10 05:32:50;;;;;;;3.40;2.03;;;;;;;21.66;65.62;101078.44;11313709;26;20435;-87
2024/04/10 05:38:14;;;;;;;3.08;1.90;;;;;;;22.25;58.09;101086.81;11312303;26;19998;-87
2024/04/10 05:43:42;;;;;;;3.25;1.90;;;;;;;22.79;52.93;101072.72;11313787;26;20009;-86
2024/04/10 05:49:10;;;;;;;5.85;1.88;;;;;;;23.21;49.37;101084.88;11263466;26;20062;-88
2024/04/10 05:54:34;;;;;;;4.80;1.90;;;;;;;23.67;46.76;101080.75;11211994;26;20003;-86
2024/04/10 06:00:01;;;;;;;7.93;2.58;;;;;;;24.13;43.56;101080.03;11237473;26;20017;-86
2024/04/10 06:05:26;;;;;;;12.10;4.22;;;;;;;24.49;41.35;101085.97;11212696;26;20004;-86
2024/04/10 06:10:54;;;;;;;5.22;2.30;;;;;;;24.85;40.78;101075.63;11212864;26;20010;-87
2024/04/10 06:16:21;;;;;;;3.03;1.60;;;;;;;25.12;38.94;101088.09;11278650;26;20048;-87
2024/04/10 06:21:45;;;;;;;7.10;2.35;;;;;;;25.51;38.74;101090.13;11256371;26;20002;-87
2024/04/10 06:27:09;;;;;;;3.65;2.33;;;;;;;25.99;38.00;101079.97;11279386;26;20010;-86
2024/04/10 06:32:37;;;;;;;3.30;2.13;;;;;;;26.35;37.41;101080.25;11279423;26;20003;-86
2024/04/10 06:38:01;;;;;;;3.13;1.60;;;;;;;26.64;36.80;101097.91;11280062;26;19995;-86
2024/04/10 06:43:25;;;;;;;6.63;1.52;;;;;;;26.93;36.20;101099.28;11254248;26;20022;-86
2024/04/10 06:48:53;;;;;;;4.82;2.08;;;;;;;27.22;35.56;101097.91;11228924;26;20004;-86
2024/04/10 06:54:20;;;;;;;4.63;1.73;;;;;;;27.43;34.80;101091.47;11179592;26;20003;-87
2024/04/10 06:59:45;;;;;;;3.42;2.28;;;;;;;27.67;34.21;101101.13;11179523;26;20080;-86
2024/04/10 07:05:12;;;;;;;11.80;3.92;;;;;;;27.86;34.11;101097.47;11179024;26;20007;-86
2024/04/10 07:10:37;;;;;;;3.35;1.60;;;;;;;28.11;33.24;101107.00;11204593;26;20009;-87
2024/04/10 07:16:03;;;;;;;3.20;1.90;;;;;;;28.16;32.71;101108.66;11203960;26;20046;-86
2024/04/10 07:21:33;;;;;;;4.53;2.10;;;;;;;28.43;32.72;101105.34;11179184;26;19999;-86
2024/04/10 07:26:57;;;;;;;2.13;1.52;;;;;;;28.63;32.56;101103.38;11178648;26;20014;-86
2024/04/10 07:32:21;;;;;;;8.48;2.00;;;;;;;28.77;32.07;101109.00;11176957;26;20065;-86
2024/04/10 07:37:49;;;;;;;4.25;2.20;;;;;;;28.91;31.98;101115.44;11203152;26;19999;-86
2024/04/10 07:43:14;;;;;;;4.15;1.73;;;;;;;29.12;31.69;101113.38;11178906;26;20035;-87
2024/04/10 07:48:40;;;;;;;4.57;2.27;;;;;;;29.21;31.43;101129.16;11193791;26;20003;-87
2024/04/10 07:54:07;;;;;;;3.42;1.90;;;;;;;29.24;30.95;101129.00;11202549;26;20049;-86
2024/04/10 07:59:32;;;;;;;4.30;1.77;;;;;;;29.47;31.00;101122.28;11202549;26;20026;-87
2024/04/10 08:04:56;;;;;;;3.55;1.73;;;;;;;29.92;30.28;101123.34;11203035;26;20809;-87
2024/04/10 08:10:26;;;;;;;4.28;2.03;;;;;;;30.06;30.07;101140.59;11232436;26;20008;-86
2024/04/10 08:15:58;;;;;;;3.72;1.63;;;;;;;30.51;29.76;101135.25;11202464;26;20000;-87
2024/04/10 08:21:23;;;;;;;3.85;1.60;;;;;;;30.54;29.40;101141.38;11201692;26;20335;-87
2024/04/10 08:26:53;;;;;;;5.10;2.88;;;;;;;30.69;28.66;101147.75;11176722;26;20035;-87
2024/04/10 08:32:17;;;;;;;6.32;3.00;;;;;;;30.69;28.63;101142.28;11201309;26;19999;-87
2024/04/10 08:37:42;;;;;;;3.15;2.08;;;;;;;30.76;28.15;101149.13;11201412;26;20003;-88
2024/04/10 08:43:18;;;;;;;2.05;1.33;;;;;;;30.80;28.14;101143.38;11200430;26;20000;-86
2024/04/10 08:48:45;;;;;;;6.18;1.98;;;;;;;31.02;28.12;101137.44;11200540;26;19999;-88
2024/04/10 08:54:10;;;;;;;3.67;1.58;;;;;;;31.15;27.50;101137.56;11199625;26;20332;-87
2024/04/10 08:59:37;;;;;;;3.67;1.52;;;;;;;31.05;27.58;101137.28;11183688;26;20485;-92
2024/04/10 09:05:01;;;;;;;2.05;1.38;;;;;;;31.34;27.58;101135.41;11178243;26;20043;-87
2024/04/10 09:10:25;;;;;;;2.90;1.50;;;;;;;31.55;27.60;101128.56;11248549;26;20043;-86
2024/04/10 09:15:57;;;;;;;3.97;2.78;;;;;;;31.82;27.42;101133.19;11239984;26;20534;-89
2024/04/10 09:21:21;;;;;;;4.03;1.70;;;;;;;31.96;27.35;101138.59;11220241;26;20003;-89
2024/04/10 09:26:48;;;;;;;5.35;1.80;;;;;;;32.24;26.71;101135.75;11242692;26;20051;-89
2024/04/10 09:32:19;;;;;;;7.07;2.90;;;;;;;32.33;26.84;101129.66;11206733;26;20079;-88
2024/04/10 09:37:44;;;;;;;6.82;3.75;;;;;;;32.49;26.79;101132.22;11271894;26;20003;-89
2024/04/10 09:43:10;;;;;;;3.50;2.08;;;;;;;32.67;26.27;101117.28;11270784;26;20018;-87
2024/04/10 09:48:37;;;;;;;6.10;1.98;;;;;;;32.65;26.36;101121.06;11193544;26;20069;-88
2024/04/10 09:54:03;;;;;;;2.97;1.95;;;;;;;32.49;26.40;101129.47;11207495;26;20011;-86
2024/04/10 09:59:27;;;;;;;3.90;1.60;;;;;;;32.35;26.30;101126.81;11266996;26;20541;-87
2024/04/10 10:04:55;;;;;;;5.13;1.60;;;;;;;32.33;26.66;101136.97;11189454;26;20026;-96
2024/04/10 10:10:19;;;;;;;4.05;1.67;;;;;;;32.25;26.50;101145.72;11220736;26;20007;-91
2024/04/10 10:15:44;;;;;;;4.47;1.40;;;;;;;32.25;26.62;101142.09;11181608;26;20076;-94
2024/04/10 10:21:12;;;;;;;2.90;1.70;;;;;;;32.10;26.49;101127.59;11159611;26;20452;-94
2024/04/10 10:26:36;;;;;;;3.95;1.73;;;;;;;32.10;26.41;101119.38;11234722;26;20056;-96
2024/04/10 10:32:05;;;;;;;3.40;1.70;;;;;;;32.26;26.14;101114.66;11221824;26;20057;-96
2024/04/10 10:37:35;;;;;;;5.28;1.60;;;;;;;32.18;25.84;101100.66;11189377;26;20007;-93
2024/04/10 10:43:05;;;;;;;3.28;1.60;;;;;;;31.86;26.17;101112.88;11208111;26;19999;-94
2024/04/10 10:48:31;;;;;;;4.63;1.80;;;;;;;31.62;26.71;101129.06;11250097;26;20010;-92
2024/04/10 10:53:59;;;;;;;2.00;1.60;;;;;;;31.32;26.86;101128.28;11226733;26;20015;-90
2024/04/10 10:59:28;;;;;;;4.32;1.77;;;;;;;31.09;27.31;101124.31;11202718;26;20324;-90
2024/04/10 11:04:53;;;;;;;3.47;1.60;;;;;;;30.78;27.60;101137.16;11203245;26;20000;-88
2024/04/10 11:10:20;;;;;;;4.38;1.95;;;;;;;30.23;28.53;101119.66;11222452;26;20072;-88
2024/04/10 11:15:46;;;;;;;4.60;1.63;;;;;;;30.02;29.15;101124.56;11202554;26;20424;-89
2024/04/10 11:21:10;;;;;;;;;;;;;;;30.07;29.08;101115.13;11201997;26;20011;-88
2024/04/10 11:26:38;;;;;;;5.63;1.63;;;;;;;30.14;28.79;101115.66;11202886;26;19925;-90
2024/04/10 11:32:03;;;;;;;3.17;1.77;;;;;;;30.13;28.58;101113.88;11221348;26;20085;-89
2024/04/10 11:37:27;;;;;;;4.68;2.17;;;;;;;30.04;28.69;101118.06;11276990;26;20040;-90
2024/04/10 11:42:57;;;;;;;4.63;1.67;;;;;;;29.63;28.82;101116.84;11228734;26;20014;-90
2024/04/10 11:48:23;;;;;;;3.15;1.45;;;;;;;29.59;28.49;101115.28;11186698;26;19999;-89
2024/04/10 11:53:47;;;;;;;3.92;1.70;;;;;;;29.73;28.83;101114.50;11179565;26;20000;-94
2024/04/10 11:59:15;;;;;;;2.50;1.88;;;;;;;29.37;29.71;101101.16;11233868;26;20036;-87
2024/04/10 12:04:43;;;;;;;3.15;1.98;;;;;;;29.11;30.27;101105.31;11213779;26;20129;-90
2024/04/10 12:10:10;;;;;;;5.72;1.70;;;;;;;28.96;30.27;101101.59;11201485;26;19999;-87
2024/04/10 12:15:37;;;;;;;6.28;1.95;;;;;;;28.85;30.65;101094.03;11228838;26;20408;-89
2024/04/10 12:21:03;;;;;;;4.70;1.92;;;;;;;28.70;30.90;101089.41;11176899;26;20007;-90
2024/04/10 12:26:33;;;;;;;2.83;1.60;;;;;;;28.54;31.03;101091.19;11199772;26;20037;-90
2024/04/10 12:32:01;;;;;;;7.77;1.67;;;;;;;28.20;31.15;101081.25;11200680;26;20351;-86
2024/04/10 12:43:06;;;;;;;7.72;2.10;;;;;;;27.71;31.65;101096.41;11185769;26;20003;-87
2024/04/10 12:48:34;;;;;;;4.00;1.80;;;;;;;27.27;32.97;101095.84;11213602;26;19999;-87
2024/04/10 12:53:58;;;;;;;8.50;1.98;;;;;;;27.04;34.16;101099.69;11176585;26;20024;-86
2024/04/10 12:59:22;;;;;;;4.10;1.70;;;;;;;26.83;34.43;101101.53;11200791;26;20000;-86
2024/04/10 13:04:50;;;;;;;5.72;2.17;;;;;;;26.86;34.35;101103.19;11201123;26;20072;-85
2024/04/10 13:10:14;;;;;;;6.15;1.63;;;;;;;26.87;34.70;101092.28;11200628;26;20014;-86
2024/04/10 13:15:39;;;;;;;1.98;1.60;;;;;;;26.95;34.77;101090.13;11230511;26;20025;-85
2024/04/10 13:21:07;;;;;;;5.15;1.90;;;;;;;26.77;34.33;101090.97;11273886;26;20013;-87
2024/04/10 13:26:33;;;;;;;4.32;1.80;;;;;;;26.64;33.84;101092.47;11272624;26;20030;-87
2024/04/10 13:31:57;;;;;;;4.82;1.60;;;;;;;26.67;32.74;101084.19;11281851;26;20079;-86
2024/04/10 13:37:25;;;;;;;2.53;1.80;;;;;;;26.56;31.95;101072.97;11280576;26;20010;-87
2024/04/10 13:42:49;;;;;;;2.17;1.70;;;;;;;26.54;32.38;101069.44;11280047;26;20054;-87
2024/04/10 13:48:14;;;;;;;4.38;1.90;;;;;;;26.44;32.05;101079.84;11205604;26;20043;-88
2024/04/10 13:53:41;;;;;;;5.68;1.77;;;;;;;26.44;31.63;101092.50;11230625;26;20573;-86
2024/04/10 13:59:08;;;;;;;4.78;2.13;;;;;;;26.46;31.43;101087.88;11205267;26;20015;-86
2024/04/10 14:04:34;;;;;;;3.22;1.75;;;;;;;26.42;31.27;101083.56;11180806;26;20051;-88
2024/04/10 14:10:04;;;;;;;;;;;;;;;26.40;31.38;101075.50;11206052;26;20019;-87
2024/04/10 14:15:28;;;;;;;4.95;1.80;;;;;;;26.40;31.63;101077.31;11205714;26;20345;-87
2024/04/10 14:21:01;;;;;;;5.10;1.83;;;;;;;26.36;31.41;101078.41;11205003;26;20459;-89
2024/04/10 14:26:28;;;;;;;4.10;1.95;;;;;;;26.47;31.00;101082.41;11205853;26;20028;-86
2024/04/10 14:31:53;;;;;;;5.38;1.90;;;;;;;26.56;30.88;101081.09;11181412;26;20444;-87
2024/04/10 14:37:17;;;;;;;4.18;2.00;;;;;;;26.64;31.30;101087.06;11204643;26;20010;-87
2024/04/10 14:42:46;;;;;;;8.57;1.83;;;;;;;26.71;31.55;101082.25;11179608;26;20000;-87
2024/04/10 14:48:10;;;;;;;7.43;2.08;;;;;;;26.76;31.21;101072.94;11211852;26;20387;-86
2024/04/10 14:53:35;;;;;;;4.38;1.92;;;;;;;26.65;30.99;101075.25;11179611;26;20072;-86
2024/04/10 14:59:02;;;;;;;3.72;1.83;;;;;;;26.47;30.79;101070.69;11169693;26;20009;-84
2024/04/10 15:04:28;;;;;;;2.83;1.75;;;;;;;26.05;30.88;101063.50;11179891;26;20012;-89
2024/04/10 15:09:53;;;;;;;3.75;1.95;;;;;;;25.64;31.51;101062.56;11277656;26;20342;-88
2024/04/10 15:15:23;;;;;;;3.78;1.80;;;;;;;25.23;31.87;101057.91;11226540;26;20015;-87
2024/04/10 15:20:48;;;;;;;4.20;1.98;;;;;;;25.02;31.91;101063.22;11177490;26;20003;-88
2024/04/10 15:26:13;;;;;;;3.05;1.88;;;;;;;24.78;32.34;101074.09;11170693;26;20011;-86
2024/04/10 15:31:41;;;;;;;4.40;2.00;;;;;;;24.44;33.16;101074.44;11201445;26;20700;-86
2024/04/10 15:37:06;;;;;;;4.15;2.15;;;;;;;24.30;33.21;101072.25;11177461;26;20034;-86
2024/04/10 15:42:31;;;;;;;3.30;1.90;;;;;;;24.14;34.18;101074.59;11202753;26;19999;-86
2024/04/10 15:47:59;;;;;;;5.80;2.08;;;;;;;23.97;35.16;101070.72;11256239;26;20013;-85
2024/04/10 15:53:24;;;;;;;4.35;2.00;;;;;;;23.76;35.69;101070.50;11200599;26;20015;-88
2024/04/10 15:58:49;;;;;;;7.43;2.33;;;;;;;23.59;36.12;101075.59;11202064;26;20003;-88
2024/04/10 16:04:17;;;;;;;3.97;2.00;;;;;;;23.48;36.52;101077.78;11178210;26;20085;-87
2024/04/10 16:09:41;;;;;;;4.22;1.98;;;;;;;23.33;36.96;101078.22;11202327;26;20023;-88
2024/04/10 16:15:06;;;;;;;5.93;2.40;;;;;;;23.28;36.94;101073.00;11177499;26;19995;-86
2024/04/10 16:20:34;;;;;;;6.60;2.15;;;;;;;23.22;37.06;101081.28;11197209;26;20069;-85
2024/04/10 16:25:58;;;;;;;;;;;;;;;23.16;36.63;101083.28;11200505;26;20003;-85
2024/04/10 16:31:22;;;;;;;7.15;3.90;;;;;;;22.82;36.83;101078.91;11174933;26;19933;-85
2024/04/10 16:36:51;;;;;;;3.78;1.88;;;;;;;22.75;36.77;101085.41;11174259;26;20425;-84
2024/04/10 16:42:16;;;;;;;4.18;2.60;;;;;;;22.57;36.99;101084.09;11150558;26;20007;-84
2024/04/10 16:47:40;;;;;;;3.95;2.08;;;;;;;22.37;37.49;101088.28;11199419;26;20374;-85
2024/04/10 16:53:09;;;;;;;6.13;2.80;;;;;;;22.14;38.25;101087.06;11206590;26;20011;-86
2024/04/10 16:58:33;;;;;;;9.57;4.65;;;;;;;21.68;39.01;101091.84;11247513;26;20072;-86
2024/04/10 17:03:57;;;;;;;41.63;26.15;;;;;;;21.61;39.24;101109.03;11272569;26;20027;-84
2024/04/10 17:09:24;;;;;;;6.50;3.60;;;;;;;21.58;39.29;101109.13;11273347;26;20350;-85
2024/04/10 17:14:48;;;;;;;4.20;2.08;;;;;;;21.51;39.40;101120.94;11209040;26;20031;-85
2024/04/10 17:26:01;;;;;;;5.25;2.60;;;;;;;21.45;40.50;101130.91;11204781;26;20003;-86
2024/04/10 17:31:26;;;;;;;7.78;2.75;;;;;;;21.36;40.58;101123.06;11199486;26;20027;-85
2024/04/10 17:36:51;;;;;;;8.50;3.42;;;;;;;21.26;41.08;101137.63;11174366;26;20010;-84
2024/04/10 17:42:18;;;;;;;4.38;3.08;;;;;;;21.13;42.07;101144.16;11174144;26;20557;-87
2024/04/10 17:47:42;;;;;;;15.88;9.32;;;;;;;21.07;42.14;101158.56;11174361;26;20032;-88
2024/04/10 17:53:06;;;;;;;12.43;9.43;;;;;;;20.91;42.84;101159.81;11192534;26;20017;-87
2024/04/10 17:58:34;;;;;;;7.05;5.20;;;;;;;20.59;43.40;101167.63;11197421;26;20765;-86
2024/04/10 18:04:01;;;;;;;5.05;2.72;;;;;;;20.62;43.54;101168.44;11197648;26;20013;-86
2024/04/10 18:09:26;;;;;;;9.48;6.15;;;;;;;20.63;43.84;101178.25;11148450;26;20010;-85
2024/04/10 18:14:53;;;;;;;12.48;10.32;;;;;;;20.42;44.79;101186.69;11200912;26;20003;-86
2024/04/10 18:20:17;;;;;;;6.90;2.67;;;;;;;20.26;45.54;101191.44;11238119;26;19998;-86
2024/04/10 18:25:41;;;;;;;2.20;2.00;;;;;;;20.17;45.79;101188.88;11278103;26;20014;-84
2024/04/10 18:31:09;;;;;;;17.23;10.35;;;;;;;20.19;46.15;101196.91;11207017;26;20010;-86
2024/04/10 18:36:34;;;;;;;7.90;4.20;;;;;;;20.19;46.23;101195.13;11204685;26;20464;-85
2024/04/10 18:41:59;;;;;;;10.27;7.47;;;;;;;20.15;46.48;101205.94;11179241;26;20082;-85
2024/04/10 18:47:27;;;;;;;11.95;6.57;;;;;;;19.86;47.41;101214.44;11237083;26;20031;-87
2024/04/10 18:52:53;;;;;;;6.63;3.95;;;;;;;19.84;47.26;101217.13;11191580;26;20076;-86
2024/04/10 18:58:19;;;;;;;5.93;4.28;;;;;;;19.88;47.27;101226.91;11202834;26;20528;-86
2024/04/10 19:03:47;;;;;;;12.98;4.47;;;;;;;19.75;47.78;101238.72;11178516;26;20000;-83
2024/04/10 19:09:11;;;;;;;5.10;2.85;;;;;;;19.60;48.33;101235.34;11179668;26;20031;-86
2024/04/10 19:14:41;;;;;;;6.93;2.83;;;;;;;19.56;49.20;101223.78;11154038;26;20004;-89
2024/04/10 19:20:09;;;;;;;6.20;2.60;;;;;;;19.57;49.99;101230.91;11179653;26;20615;-84
2024/04/10 19:25:33;;;;;;;5.85;2.85;;;;;;;19.47;50.37;101240.00;11201991;26;20031;-84
2024/04/10 19:31:00;;;;;;;5.00;3.20;;;;;;;19.43;50.81;101243.56;11239921;26;20017;-85
2024/04/10 19:36:27;;;;;;;5.55;3.40;;;;;;;19.37;51.21;101247.22;11251357;26;20042;-85
2024/04/10 19:41:51;;;;;;;4.90;4.22;;;;;;;19.21;51.66;101252.78;11201576;26;20003;-84
2024/04/10 19:47:15;;;;;;;6.03;3.92;;;;;;;19.10;52.19;101243.06;11176409;26;19996;-83
2024/04/10 19:52:44;;;;;;;5.20;2.60;;;;;;;19.22;51.42;101251.88;11218098;26;20035;-81
2024/04/10 19:58:08;;;;;;;3.63;2.70;;;;;;;19.30;50.77;101244.63;11219425;26;20028;-84
2024/04/10 20:03:32;;;;;;;5.20;2.60;;;;;;;19.26;50.77;101241.13;11193426;26;20014;-86
2024/04/10 20:09:03;;;;;;;4.30;3.10;;;;;;;19.17;51.23;101241.22;11202059;26;20561;-86
2024/04/10 20:14:28;;;;;;;3.90;2.78;;;;;;;18.72;52.91;101255.97;11202580;26;20035;-85
2024/04/10 20:19:52;;;;;;;3.40;2.60;;;;;;;18.39;56.12;101259.81;11202422;26;20003;-88
2024/04/10 20:25:20;;;;;;;3.33;2.15;;;;;;;18.44;56.11;101263.38;11201426;26;20003;-87
2024/04/10 20:30:49;;;;;;;6.10;2.33;;;;;;;18.69;54.82;101259.59;11202809;26;20455;-86
2024/04/10 20:36:13;;;;;;;;;;;;;;;19.04;53.29;101271.69;11202220;26;20076;-85
2024/04/10 20:41:40;;;;;;;6.57;2.50;;;;;;;18.86;53.48;101267.44;11176967;26;19999;-85
2024/04/10 20:47:05;;;;;;;3.28;1.90;;;;;;;18.75;54.09;101277.38;11201834;26;20006;-85
2024/04/10 20:52:33;;;;;;;6.20;2.10;;;;;;;18.77;54.14;101280.94;11200569;26;20007;-86
2024/04/10 20:58:00;;;;;;;2.47;1.80;;;;;;;18.96;53.12;101282.50;11200650;26;20019;-85
2024/04/10 21:03:24;;;;;;;6.93;2.20;;;;;;;18.91;53.08;101276.28;11201246;26;19999;-86
2024/04/10 22:11:22;;;;;;;3.30;2.17;;;;;;;17.17;63.39;101313.00;11187695;26;19995;-86
2024/04/10 22:28:14;;;;;;;3.40;2.25;;;;;;;17.05;65.58;101297.91;11234795;26;20003;-82
2024/04/10 22:33:38;;;;;;;5.65;2.10;;;;;;;16.86;66.80;101300.63;11181617;26;20000;-83
2024/04/10 22:39:05;;;;;;;3.03;2.03;;;;;;;16.74;67.78;101289.06;11181500;26;20012;-83
2024/04/10 22:44:30;;;;;;;;;;;;;;;16.51;68.65;101280.16;11231055;26;20003;-84
2024/04/10 22:49:55;;;;;;;2.80;2.10;;;;;;;16.28;70.20;101280.16;11227040;26;19925;-84
2024/04/10 22:55:22;;;;;;;5.97;2.60;;;;;;;16.11;73.68;101275.72;11278174;26;20768;-82
2024/04/10 23:00:47;;;;;;;3.10;2.30;;;;;;;16.20;73.39;101273.06;11277658;26;20007;-84
2024/04/10 23:06:11;;;;;;;3.25;2.30;;;;;;;16.23;73.37;101284.59;11253533;26;20038;-84
2024/04/10 23:11:39;;;;;;;5.47;2.63;;;;;;;16.12;74.52;101282.81;11278529;26;20023;-84
2024/04/10 23:17:04;;;;;;;3.92;2.30;;;;;;;16.05;75.40;101287.25;11204592;26;19999;-84
2024/04/10 23:22:28;;;;;;;3.20;1.98;;;;;;;15.93;76.05;101293.44;11179899;26;20014;-84
2024/04/10 23:27:56;;;;;;;5.55;2.05;;;;;;;15.98;75.64;101287.22;11180056;26;20021;-83
2024/04/10 23:33:21;;;;;;;3.72;1.83;;;;;;;15.98;74.57;101292.56;11204310;26;19995;-84
2024/04/10 23:38:46;;;;;;;2.90;2.28;;;;;;;15.87;76.47;101284.56;11179212;26;20000;-84
2024/04/10 23:44:13;;;;;;;4.22;2.75;;;;;;;15.81;78.19;101277.44;11180134;26;20386;-83
2024/04/10 23:49:39;;;;;;;3.60;2.30;;;;;;;15.73;78.80;101279.19;11203475;26;20483;-83
2024/04/10 23:55:04;;;;;;;4.53;2.35;;;;;;;15.52;79.73;101280.00;11227152;26;20047;-85
